createdAt,value
2018-05-11T00:02:14.474Z,12.37
2018-05-11T00:04:40.285Z,12.30
2018-05-11T00:07:06.075Z,12.30
2018-05-11T00:09:31.849Z,12.31
2018-05-11T00:11:57.647Z,12.31
2018-05-11T00:14:23.428Z,12.34
2018-05-11T00:16:49.249Z,12.34
2018-05-11T00:19:15.057Z,12.40
2018-05-11T00:21:40.850Z,12.32
2018-05-11T00:24:06.670Z,12.32
2018-05-11T00:26:32.470Z,12.38
2018-05-11T00:28:58.255Z,12.36
2018-05-11T00:31:24.062Z,12.40
2018-05-11T00:33:49.863Z,12.37
2018-05-11T00:36:15.657Z,12.32
2018-05-11T00:38:41.455Z,12.40
2018-05-11T00:41:07.252Z,12.55
2018-05-11T00:43:33.064Z,12.48
2018-05-11T00:45:58.849Z,12.44
2018-05-11T00:48:24.641Z,12.32
2018-05-11T00:50:50.459Z,12.35
2018-05-11T00:53:16.240Z,12.64
2018-05-11T00:55:44.910Z,12.55
2018-05-11T00:58:10.722Z,12.50
2018-05-11T01:00:36.551Z,12.51
2018-05-11T01:03:02.450Z,12.52
2018-05-11T01:05:28.321Z,12.33
2018-05-11T01:07:54.096Z,12.37
2018-05-11T01:10:19.955Z,12.31
2018-05-11T01:12:45.750Z,12.36
2018-05-11T01:15:11.558Z,12.44
2018-05-11T01:17:37.371Z,12.53
2018-05-11T01:20:03.194Z,12.42
2018-05-11T01:22:28.987Z,12.41
2018-05-11T01:24:54.782Z,12.34
2018-05-11T01:27:20.575Z,12.30
2018-05-11T01:29:46.384Z,12.35
2018-05-11T01:32:12.191Z,12.28
2018-05-11T01:34:37.983Z,12.16
2018-05-11T01:37:03.772Z,12.21
2018-05-11T01:39:29.839Z,12.24
2018-05-11T01:41:55.638Z,12.20
2018-05-11T01:44:21.468Z,12.20
2018-05-11T01:46:47.497Z,12.25
2018-05-11T01:49:13.286Z,12.32
2018-05-11T01:51:39.062Z,12.33
2018-05-11T01:54:04.866Z,12.21
2018-05-11T01:56:30.654Z,12.29
2018-05-11T01:58:56.470Z,12.23
2018-05-11T02:01:22.270Z,12.24
2018-05-11T02:03:48.076Z,12.30
2018-05-11T02:06:13.873Z,12.18
2018-05-11T02:08:39.664Z,12.25
2018-05-11T02:11:05.444Z,12.23
2018-05-11T02:13:31.269Z,12.17
2018-05-11T02:15:57.068Z,12.20
2018-05-11T02:18:22.837Z,12.29
2018-05-11T02:20:48.634Z,12.28
2018-05-11T02:23:14.422Z,12.17
2018-05-11T02:25:40.231Z,12.15
2018-05-11T02:28:06.025Z,12.11
2018-05-11T02:30:31.800Z,12.16
2018-05-11T02:32:57.593Z,12.21
2018-05-11T02:35:23.424Z,12.35
2018-05-11T02:37:49.211Z,12.32
2018-05-11T02:40:14.998Z,12.21
2018-05-11T02:42:40.811Z,12.25
2018-05-11T02:45:06.614Z,12.25
2018-05-11T02:47:32.398Z,12.21
2018-05-11T02:49:58.228Z,12.32
2018-05-11T02:52:24.092Z,12.36
2018-05-11T02:54:49.881Z,12.29
2018-05-11T02:57:15.673Z,12.46
2018-05-11T02:59:41.444Z,12.27
2018-05-11T03:02:07.373Z,12.14
2018-05-11T03:04:33.176Z,12.18
2018-05-11T03:06:58.960Z,12.17
2018-05-11T03:09:25.117Z,12.09
2018-05-11T03:11:52.066Z,12.07
2018-05-11T03:14:17.862Z,12.02
2018-05-11T03:16:43.686Z,11.96
2018-05-11T03:19:09.489Z,11.99
2018-05-11T03:21:35.273Z,12.08
2018-05-11T03:24:01.093Z,12.05
2018-05-11T03:26:26.893Z,12.07
2018-05-11T03:28:52.699Z,12.00
2018-05-11T03:31:18.489Z,12.01
2018-05-11T03:33:44.282Z,11.96
2018-05-11T03:36:10.066Z,12.10
2018-05-11T03:38:35.841Z,12.08
2018-05-11T03:41:01.667Z,11.96
2018-05-11T03:43:27.453Z,12.01
2018-05-11T03:45:53.279Z,12.04
2018-05-11T03:48:19.079Z,12.05
2018-05-11T03:50:44.860Z,12.10
2018-05-11T03:53:10.633Z,11.98
2018-05-11T03:55:36.425Z,12.14
2018-05-11T03:58:02.245Z,12.05
2018-05-11T04:00:28.036Z,12.10
2018-05-11T04:03:06.402Z,12.16
2018-05-11T04:05:44.847Z,12.19
2018-05-11T04:08:23.140Z,11.95
2018-05-11T04:10:48.940Z,12.02
2018-05-11T04:13:15.563Z,12.02
2018-05-11T04:15:41.366Z,11.93
2018-05-11T04:18:07.133Z,11.99
2018-05-11T04:20:32.927Z,11.81
2018-05-11T04:22:58.693Z,12.06
2018-05-11T04:25:24.510Z,11.96
2018-05-11T04:27:50.364Z,11.88
2018-05-11T04:30:16.156Z,11.81
2018-05-11T04:32:41.933Z,11.85
2018-05-11T04:35:07.706Z,11.91
2018-05-11T04:37:33.499Z,11.82
2018-05-11T04:39:59.280Z,11.79
2018-05-11T04:42:25.086Z,11.87
2018-05-11T04:44:50.872Z,11.82
2018-05-11T04:47:16.659Z,11.71
2018-05-11T04:49:42.466Z,11.77
2018-05-11T04:52:08.262Z,11.83
2018-05-11T04:54:34.037Z,11.86
2018-05-11T04:56:59.825Z,11.75
2018-05-11T04:59:25.614Z,11.68
2018-05-11T05:01:51.396Z,11.64
2018-05-11T05:04:17.209Z,11.55
2018-05-11T05:06:42.984Z,11.55
2018-05-11T05:09:08.760Z,11.58
2018-05-11T05:11:34.565Z,11.65
2018-05-11T05:14:00.364Z,11.70
2018-05-11T05:16:26.138Z,11.81
2018-05-11T05:18:51.934Z,11.92
2018-05-11T05:21:17.756Z,11.98
2018-05-11T05:23:43.558Z,11.91
2018-05-11T05:26:09.357Z,12.11
2018-05-11T05:28:35.126Z,12.12
2018-05-11T05:31:00.918Z,12.12
2018-05-11T05:33:26.699Z,12.12
2018-05-11T05:35:52.473Z,12.06
2018-05-11T05:38:18.256Z,12.13
2018-05-11T05:40:44.056Z,12.15
2018-05-11T05:43:09.953Z,12.11
2018-05-11T05:45:35.839Z,12.19
2018-05-11T05:48:01.621Z,12.30
2018-05-11T05:50:27.432Z,12.43
2018-05-11T05:52:53.226Z,12.40
2018-05-11T05:55:19.011Z,12.39
2018-05-11T05:57:44.806Z,12.60
2018-05-11T06:00:10.613Z,12.44
2018-05-11T06:02:36.399Z,12.42
2018-05-11T06:05:02.212Z,12.41
2018-05-11T06:07:28.025Z,12.53
2018-05-11T06:09:53.833Z,12.47
2018-05-11T06:12:19.645Z,12.48
2018-05-11T06:14:45.436Z,12.68
2018-05-11T06:17:11.265Z,12.80
2018-05-11T06:19:37.076Z,12.67
2018-05-11T06:22:02.901Z,12.55
2018-05-11T06:24:28.675Z,12.61
2018-05-11T06:26:54.516Z,12.60
2018-05-11T06:29:20.300Z,12.49
2018-05-11T06:31:46.079Z,12.72
2018-05-11T06:34:11.917Z,12.90
2018-05-11T06:36:37.710Z,12.84
2018-05-11T06:39:04.533Z,13.01
2018-05-11T06:41:30.351Z,12.95
2018-05-11T06:43:56.140Z,13.05
2018-05-11T06:46:21.933Z,13.11
2018-05-11T06:48:47.737Z,13.01
2018-05-11T06:51:13.525Z,12.97
2018-05-11T06:53:39.310Z,13.03
2018-05-11T06:56:05.113Z,13.12
2018-05-11T06:58:30.895Z,13.07
2018-05-11T07:00:56.686Z,13.11
2018-05-11T07:03:22.781Z,13.19
2018-05-11T07:05:48.628Z,13.32
2018-05-11T07:08:14.437Z,13.34
2018-05-11T07:10:40.238Z,13.43
2018-05-11T07:13:06.024Z,13.63
2018-05-11T07:15:31.852Z,13.79
2018-05-11T07:17:57.642Z,13.82
2018-05-11T07:20:23.429Z,13.77
2018-05-11T07:22:49.229Z,13.80
2018-05-11T07:25:15.018Z,13.82
2018-05-11T07:27:40.802Z,13.64
2018-05-11T07:30:06.597Z,13.74
2018-05-11T07:32:32.469Z,13.74
2018-05-11T07:34:58.329Z,13.70
2018-05-11T07:37:24.352Z,13.75
2018-05-11T07:39:50.387Z,13.92
2018-05-11T07:42:16.301Z,14.16
2018-05-11T07:44:42.114Z,14.15
2018-05-11T07:47:07.933Z,14.25
2018-05-11T07:49:33.718Z,14.22
2018-05-11T07:51:59.503Z,14.14
2018-05-11T07:54:25.299Z,14.21
2018-05-11T07:56:51.113Z,14.27
2018-05-11T07:59:16.909Z,14.33
2018-05-11T08:01:42.718Z,14.31
2018-05-11T08:04:08.497Z,14.15
2018-05-11T08:06:34.302Z,14.17
2018-05-11T08:09:00.101Z,14.25
2018-05-11T08:11:25.881Z,14.24
2018-05-11T08:13:51.661Z,14.46
2018-05-11T08:16:17.490Z,14.38
2018-05-11T08:18:43.272Z,14.25
2018-05-11T08:21:09.057Z,14.54
2018-05-11T08:23:34.887Z,14.61
2018-05-11T08:26:00.669Z,14.62
2018-05-11T08:28:26.449Z,14.39
2018-05-11T08:30:52.255Z,14.38
2018-05-11T08:33:18.087Z,14.49
2018-05-11T08:35:43.915Z,14.60
2018-05-11T08:38:09.675Z,14.62
2018-05-11T08:40:35.478Z,14.72
2018-05-11T08:43:01.262Z,14.68
2018-05-11T08:45:27.064Z,14.82
2018-05-11T08:47:52.905Z,14.91
2018-05-11T08:50:19.005Z,15.12
2018-05-11T08:52:44.785Z,15.16
2018-05-11T08:55:10.561Z,15.27
2018-05-11T08:57:36.365Z,15.39
2018-05-11T09:00:02.170Z,15.32
2018-05-11T09:02:27.954Z,15.19
2018-05-11T09:04:53.763Z,15.04
2018-05-11T09:07:19.541Z,15.05
2018-05-11T09:09:45.317Z,15.30
2018-05-11T09:12:11.133Z,15.43
2018-05-11T09:14:36.925Z,15.46
2018-05-11T09:17:02.713Z,15.40
2018-05-11T09:19:28.530Z,15.60
2018-05-11T09:21:54.307Z,15.64
2018-05-11T09:24:20.089Z,15.70
2018-05-11T09:26:45.926Z,15.79
2018-05-11T09:29:11.697Z,15.80
2018-05-11T09:31:37.481Z,15.62
2018-05-11T09:34:03.276Z,15.39
2018-05-11T09:36:29.073Z,15.80
2018-05-11T09:38:54.844Z,15.91
2018-05-11T09:41:20.659Z,15.94
2018-05-11T09:43:46.453Z,16.02
2018-05-11T09:46:12.233Z,16.18
2018-05-11T09:48:38.027Z,16.34
2018-05-11T09:51:03.821Z,16.31
2018-05-11T09:53:29.608Z,16.53
2018-05-11T09:55:55.590Z,16.58
2018-05-11T09:58:21.391Z,16.68
2018-05-11T10:00:47.215Z,16.63
2018-05-11T10:03:12.999Z,16.74
2018-05-11T10:05:38.775Z,16.92
2018-05-11T10:08:04.594Z,16.51
2018-05-11T10:10:30.365Z,16.85
2018-05-11T10:12:56.177Z,17.10
2018-05-11T10:15:21.997Z,17.18
2018-05-11T10:17:47.779Z,17.17
2018-05-11T10:20:13.736Z,17.34
2018-05-11T10:22:39.521Z,17.12
2018-05-11T10:25:05.321Z,17.34
2018-05-11T10:27:31.122Z,17.37
2018-05-11T10:29:56.933Z,16.98
2018-05-11T10:32:22.817Z,16.71
2018-05-11T10:34:49.082Z,16.72
2018-05-11T10:37:15.419Z,16.88
2018-05-11T10:39:41.653Z,17.07
2018-05-11T10:42:07.889Z,17.43
2018-05-11T10:44:34.056Z,17.57
2018-05-11T10:47:00.270Z,17.31
2018-05-11T10:49:26.363Z,17.46
2018-05-11T10:51:52.168Z,17.70
2018-05-11T10:54:17.977Z,17.48
2018-05-11T10:56:43.803Z,17.26
2018-05-11T10:59:09.621Z,17.14
2018-05-11T11:01:35.750Z,16.92
2018-05-11T11:04:01.541Z,16.85
2018-05-11T11:06:27.333Z,16.75
2018-05-11T11:08:53.150Z,17.20
2018-05-11T11:11:18.937Z,17.63
2018-05-11T11:13:44.748Z,17.56
2018-05-11T11:16:10.678Z,17.90
2018-05-11T11:18:36.486Z,17.92
2018-05-11T11:21:02.271Z,18.18
2018-05-11T11:23:28.056Z,18.56
2018-05-11T11:25:53.907Z,18.71
2018-05-11T11:28:19.676Z,18.41
2018-05-11T11:30:45.461Z,18.37
2018-05-11T11:33:11.257Z,18.54
2018-05-11T11:35:37.047Z,18.11
2018-05-11T11:38:02.844Z,18.39
2018-05-11T11:40:28.946Z,18.24
2018-05-11T11:42:54.730Z,18.36
2018-05-11T11:45:20.510Z,18.62
2018-05-11T11:47:46.307Z,18.58
2018-05-11T11:50:12.091Z,18.50
2018-05-11T11:52:37.902Z,18.41
2018-05-11T11:55:03.702Z,18.43
2018-05-11T11:57:29.493Z,18.69
2018-05-11T11:59:55.284Z,18.52
2018-05-11T12:02:21.122Z,18.79
2018-05-11T12:04:46.908Z,19.05
2018-05-11T12:07:12.694Z,19.29
2018-05-11T12:09:38.521Z,19.50
2018-05-11T12:12:04.310Z,19.41
2018-05-11T12:14:30.101Z,19.11
2018-05-11T12:16:55.910Z,19.05
2018-05-11T12:19:21.704Z,18.85
2018-05-11T12:21:47.509Z,18.92
2018-05-11T12:24:13.305Z,18.97
2018-05-11T12:26:39.094Z,18.82
2018-05-11T12:29:04.912Z,18.80
2018-05-11T12:31:30.701Z,18.92
2018-05-11T12:33:56.493Z,18.82
2018-05-11T12:36:22.472Z,18.78
2018-05-11T12:38:48.280Z,18.77
2018-05-11T12:41:14.105Z,18.94
2018-05-11T12:43:39.886Z,19.16
2018-05-11T12:46:05.664Z,18.90
2018-05-11T12:48:32.543Z,18.59
2018-05-11T12:50:58.548Z,18.63
2018-05-11T12:53:24.355Z,18.71
2018-05-11T12:55:50.342Z,18.62
2018-05-11T12:58:16.147Z,18.64
2018-05-11T13:00:41.964Z,18.66
2018-05-11T13:03:07.894Z,18.96
2018-05-11T13:05:33.676Z,19.33
2018-05-11T13:07:59.470Z,19.24
2018-05-11T13:10:25.273Z,18.98
2018-05-11T13:12:51.122Z,19.04
2018-05-11T13:15:17.214Z,19.13
2018-05-11T13:17:43.000Z,19.06
2018-05-11T13:20:08.778Z,19.26
2018-05-11T13:22:34.729Z,19.23
2018-05-11T13:25:00.522Z,19.11
2018-05-11T13:27:26.307Z,18.96
2018-05-11T13:29:52.305Z,18.95
2018-05-11T13:32:18.119Z,19.11
2018-05-11T13:34:43.917Z,19.14
2018-05-11T13:37:09.709Z,19.08
2018-05-11T13:39:35.506Z,18.92
2018-05-11T13:42:01.354Z,19.01
2018-05-11T13:44:27.109Z,19.11
2018-05-11T13:46:52.900Z,19.25
2018-05-11T13:49:18.717Z,19.30
2018-05-11T13:51:44.493Z,19.22
2018-05-11T13:54:10.285Z,19.42
2018-05-11T13:56:36.122Z,19.21
2018-05-11T13:59:01.943Z,19.83
2018-05-11T14:01:27.721Z,20.18
2018-05-11T14:03:53.530Z,20.67
2018-05-11T14:06:19.345Z,21.41
2018-05-11T14:08:45.135Z,21.53
2018-05-11T14:11:10.954Z,21.27
2018-05-11T14:13:36.751Z,20.59
2018-05-11T14:16:02.567Z,20.76
2018-05-11T14:18:28.669Z,20.23
2018-05-11T14:20:54.465Z,20.15
2018-05-11T14:23:20.264Z,20.22
2018-05-11T14:25:46.070Z,20.11
2018-05-11T14:28:11.907Z,20.25
2018-05-11T14:30:37.990Z,20.08
2018-05-11T14:33:03.905Z,20.25
2018-05-11T14:35:29.769Z,20.28
2018-05-11T14:37:55.563Z,20.28
2018-05-11T14:40:21.411Z,20.47
2018-05-11T14:42:47.198Z,20.57
2018-05-11T14:45:12.984Z,20.57
2018-05-11T14:47:38.773Z,21.22
2018-05-11T14:50:04.569Z,21.46
2018-05-11T14:52:30.366Z,21.29
2018-05-11T14:54:56.172Z,21.15
2018-05-11T14:57:22.276Z,21.39
2018-05-11T14:59:48.070Z,21.18
2018-05-11T15:02:13.886Z,21.08
2018-05-11T15:04:40.032Z,20.75
2018-05-11T15:07:05.853Z,20.91
2018-05-11T15:09:31.673Z,20.39
2018-05-11T15:11:57.857Z,20.39
2018-05-11T15:14:23.645Z,20.73
2018-05-11T15:16:49.443Z,20.61
2018-05-11T15:19:15.262Z,20.75
2018-05-11T15:21:41.053Z,20.63
2018-05-11T15:24:06.863Z,20.29
2018-05-11T15:26:32.694Z,20.38
2018-05-11T15:28:58.497Z,20.35
2018-05-11T15:31:24.316Z,20.37
2018-05-11T15:33:50.110Z,20.41
2018-05-11T15:36:15.902Z,20.27
2018-05-11T15:38:41.725Z,20.42
2018-05-11T15:41:07.509Z,20.17
2018-05-11T15:43:33.284Z,20.00
2018-05-11T15:45:59.077Z,20.09
2018-05-11T15:48:25.299Z,19.99
2018-05-11T15:50:51.096Z,19.69
2018-05-11T15:53:16.889Z,19.80
2018-05-11T15:55:42.736Z,19.68
2018-05-11T15:58:08.530Z,19.63
2018-05-11T16:00:34.314Z,19.62
2018-05-11T16:03:00.142Z,19.44
2018-05-11T16:05:25.957Z,19.46
2018-05-11T16:07:51.762Z,19.55
2018-05-11T16:10:17.577Z,19.47
2018-05-11T16:12:43.426Z,19.34
2018-05-11T16:15:09.181Z,19.49
2018-05-11T16:17:41.777Z,19.57
2018-05-11T16:20:07.585Z,19.50
2018-05-11T16:22:33.372Z,19.40
2018-05-11T16:24:59.195Z,19.44
2018-05-11T16:27:25.085Z,19.32
2018-05-11T16:29:50.870Z,19.39
2018-05-11T16:32:16.661Z,19.35
2018-05-11T16:34:42.490Z,19.29
2018-05-11T16:37:08.280Z,19.34
2018-05-11T16:39:34.182Z,19.28
2018-05-11T16:41:59.924Z,19.16
2018-05-11T16:44:25.715Z,19.15
2018-05-11T16:46:51.553Z,19.15
2018-05-11T16:49:17.369Z,19.21
2018-05-11T16:51:43.159Z,19.21
2018-05-11T16:54:08.958Z,19.28
2018-05-11T16:56:34.770Z,19.33
2018-05-11T16:59:00.583Z,19.24
2018-05-11T17:01:26.495Z,19.25
2018-05-11T17:03:52.286Z,19.13
2018-05-11T17:06:18.104Z,19.14
2018-05-11T17:08:44.039Z,18.94
2018-05-11T17:11:09.834Z,18.86
2018-05-11T17:13:35.633Z,18.94
2018-05-11T17:16:01.431Z,18.94
2018-05-11T17:18:27.230Z,19.08
2018-05-11T17:20:53.021Z,18.98
2018-05-11T17:23:18.810Z,18.95
2018-05-11T17:25:44.613Z,18.99
2018-05-11T17:28:10.390Z,18.93
2018-05-11T17:30:36.193Z,18.93
2018-05-11T17:33:02.032Z,18.82
2018-05-11T17:35:27.837Z,18.88
2018-05-11T17:37:53.613Z,18.81
2018-05-11T17:40:19.701Z,18.69
2018-05-11T17:42:45.511Z,18.70
2018-05-11T17:45:11.290Z,18.67
2018-05-11T17:47:37.094Z,18.72
2018-05-11T17:50:02.942Z,18.75
2018-05-11T17:52:28.725Z,18.67
2018-05-11T17:54:54.537Z,18.58
2018-05-11T17:57:20.369Z,18.61
2018-05-11T17:59:46.159Z,18.52
2018-05-11T18:02:11.979Z,18.71
2018-05-11T18:04:37.769Z,18.59
2018-05-11T18:07:03.560Z,18.52
2018-05-11T18:09:29.363Z,18.45
2018-05-11T18:11:55.161Z,18.49
2018-05-11T18:14:20.970Z,18.52
2018-05-11T18:16:46.794Z,18.39
2018-05-11T18:19:12.573Z,18.24
2018-05-11T18:21:38.370Z,18.19
2018-05-11T18:24:04.269Z,18.18
2018-05-11T18:26:30.055Z,18.13
2018-05-11T18:28:55.850Z,17.99
2018-05-11T18:31:21.663Z,17.94
2018-05-11T18:33:47.453Z,17.94
2018-05-11T18:36:13.269Z,17.85
2018-05-11T18:38:39.089Z,17.82
2018-05-11T18:41:04.875Z,17.78
2018-05-11T18:43:30.692Z,17.83
2018-05-11T18:45:56.482Z,17.85
2018-05-11T18:48:22.274Z,17.78
2018-05-11T18:50:48.066Z,17.71
2018-05-11T18:53:14.205Z,17.68
2018-05-11T18:55:39.677Z,17.61
2018-05-11T18:58:05.470Z,17.52
2018-05-11T19:00:31.287Z,17.39
2018-05-11T19:02:57.091Z,17.31
2018-05-11T19:05:22.878Z,17.16
2018-05-11T19:07:48.671Z,16.98
2018-05-11T19:10:14.482Z,17.02
2018-05-11T19:12:40.269Z,17.00
2018-05-11T19:15:06.102Z,17.00
2018-05-11T19:17:31.885Z,16.96
2018-05-11T19:19:57.685Z,17.02
2018-05-11T19:22:23.485Z,16.92
2018-05-11T19:24:49.274Z,16.64
2018-05-11T19:27:15.098Z,16.72
2018-05-11T19:29:40.888Z,16.78
2018-05-11T19:32:06.697Z,16.58
2018-05-11T19:34:32.494Z,16.47
2018-05-11T19:39:31.073Z,16.34
2018-05-11T19:41:56.856Z,16.32
2018-05-11T19:44:22.654Z,16.23
2018-05-11T19:46:48.486Z,16.06
2018-05-11T19:49:14.367Z,16.01
2018-05-11T19:51:40.155Z,16.05
2018-05-11T19:54:05.960Z,16.03
2018-05-11T19:56:31.750Z,16.01
2018-05-11T19:58:57.550Z,15.94
2018-05-11T20:01:23.356Z,15.86
2018-05-11T20:03:49.133Z,15.92
2018-05-11T20:06:14.929Z,15.90
2018-05-11T20:08:40.718Z,15.74
2018-05-11T20:11:06.542Z,15.67
2018-05-11T20:13:32.337Z,15.78
2018-05-11T20:15:58.145Z,15.70
2018-05-11T20:18:24.245Z,15.65
2018-05-11T20:20:50.031Z,15.50
2018-05-11T20:23:15.823Z,15.50
2018-05-11T20:25:41.621Z,15.47
2018-05-11T20:28:07.425Z,15.57
2018-05-11T20:30:33.229Z,15.53
2018-05-11T20:32:59.032Z,15.47
2018-05-11T20:35:24.812Z,15.47
2018-05-11T20:37:50.606Z,15.50
2018-05-11T20:40:16.432Z,15.47
2018-05-11T20:42:42.249Z,15.39
2018-05-11T20:45:08.065Z,15.36
2018-05-11T20:47:33.867Z,15.44
2018-05-11T20:49:59.687Z,15.43
2018-05-11T20:52:25.491Z,15.35
2018-05-11T20:54:51.282Z,15.31
2018-05-11T20:57:17.215Z,15.30
2018-05-11T20:59:43.013Z,15.32
2018-05-11T21:02:08.812Z,15.43
2018-05-11T21:04:41.639Z,15.50
2018-05-11T21:07:07.432Z,15.43
2018-05-11T21:09:33.245Z,15.34
2018-05-11T21:11:59.022Z,15.44
2018-05-11T21:14:24.883Z,15.42
2018-05-11T21:16:50.622Z,15.28
2018-05-11T21:19:23.368Z,15.29
2018-05-11T21:21:49.253Z,15.21
2018-05-11T21:24:15.057Z,15.28
2018-05-11T21:26:40.842Z,15.29
2018-05-11T21:29:06.650Z,15.24
2018-05-11T21:31:32.434Z,15.35
2018-05-11T21:33:58.232Z,15.46
2018-05-11T21:36:24.009Z,15.34
2018-05-11T21:38:49.800Z,15.37
2018-05-11T21:41:15.683Z,15.26
2018-05-11T21:43:41.414Z,15.28
2018-05-11T21:46:07.226Z,15.25
2018-05-11T21:48:33.013Z,15.15
2018-05-11T21:50:58.797Z,15.28
2018-05-11T21:53:24.615Z,15.29
2018-05-11T21:55:50.424Z,15.30
2018-05-11T21:58:16.233Z,15.23
2018-05-11T22:00:42.066Z,15.20
2018-05-11T22:03:07.863Z,15.16
2018-05-11T22:05:33.666Z,15.12
2018-05-11T22:07:59.441Z,15.18
2018-05-11T22:10:25.234Z,15.23
2018-05-11T22:12:51.025Z,15.20
2018-05-11T22:15:16.833Z,15.22
2018-05-11T22:17:42.621Z,15.30
2018-05-11T22:20:08.417Z,15.15
2018-05-11T22:22:34.202Z,15.27
2018-05-11T22:25:00.003Z,15.22
2018-05-11T22:27:25.785Z,15.17
2018-05-11T22:29:51.923Z,15.24
2018-05-11T22:32:17.727Z,15.24
2018-05-11T22:34:43.541Z,15.22
2018-05-11T22:37:09.317Z,15.33
2018-05-11T22:39:35.117Z,15.34
2018-05-11T22:42:00.936Z,15.19
2018-05-11T22:44:26.721Z,15.25
2018-05-11T22:46:52.506Z,15.38
2018-05-11T22:49:18.311Z,15.22
2018-05-11T22:51:44.098Z,15.21
2018-05-11T22:54:09.929Z,15.32
2018-05-11T22:56:35.714Z,15.34
2018-05-11T22:59:01.511Z,15.23
2018-05-11T23:01:27.311Z,15.16
2018-05-11T23:03:53.089Z,15.28
2018-05-11T23:06:18.877Z,15.14
2018-05-11T23:08:44.667Z,15.11
2018-05-11T23:11:10.485Z,14.95
2018-05-11T23:13:36.280Z,14.73
2018-05-11T23:16:02.141Z,14.65
2018-05-11T23:18:28.130Z,14.56
2018-05-11T23:20:53.913Z,14.37
2018-05-11T23:23:19.888Z,14.08
2018-05-11T23:25:45.872Z,14.13
2018-05-11T23:28:11.661Z,14.14
2018-05-11T23:30:37.534Z,14.06
2018-05-11T23:33:03.346Z,13.98
2018-05-11T23:35:29.133Z,13.96
2018-05-11T23:37:55.270Z,13.90
2018-05-11T23:40:21.080Z,13.74
2018-05-11T23:42:46.865Z,13.70
2018-05-11T23:45:12.684Z,13.77
2018-05-11T23:47:38.477Z,13.71
2018-05-11T23:50:04.274Z,13.70
2018-05-11T23:52:30.070Z,13.68
2018-05-11T23:54:55.862Z,13.62
2018-05-11T23:57:21.646Z,13.58
2018-05-11T23:59:47.463Z,13.47
